Alpena, MI

10:52 PM EDT on July 28, 2015 (GMT -0400)
APRSWXNET | | Change Station
CLOSE
Current Station
Personal Weather Station
Location: Alpena, MI
Elevation: 593 ft
Nearby Weather Stations

Elev 593 ft 45.05 °N, 83.45 °W | Updated 28 minutes ago

Partly Cloudy
Partly Cloudy
74 °F
Feels Like 75 °F
N
0
Wind Variable Wind from SE
Gusts 1.0 mph

Today
High -- | Low -- °F
--% Chance of Precip.
Yesterday
High -- | Low -- °F
Precip. -- in
6:14 AM 9:05 PM
Waxing Gibbous, 93% visible
Pressure 29.96 in
Visibility 10.0 miles
Clouds Clear
Heat Index 75 °F
Dew Point 66 °F
Humidity 75%
Rainfall in
Snow Depth Not available.
UV 0 out of 12
Pollen 6.30 out of 12
Air Quality Not available.
Flu Activity Not available.
METAR KAPN 290154Z AUTO 18004KT 10SM CLR 24/17 A2997 RMK AO2 SLP143 T02390167

More Conditions Fewer Conditions

Pressure 29.96 in
Visibility 10.0 miles
Clouds Clear
Heat Index 75 °F
Dew Point 66 °F
Humidity 75%
Rainfall in
Snow Depth Not available.
UV 0 out of 12
Pollen 6.30 out of 12
Air Quality Not available.
Flu Activity Not available.
METAR KAPN 290154Z AUTO 18004KT 10SM CLR 24/17 A2997 RMK AO2 SLP143 T02390167

More Conditions Fewer Conditions

Nowcast | as of 9:00 PM EDT on July 28, 2015

At 10 PM...mostly clear. Temperature 75. South winds 6 mph. At 12 am...mostly clear. Temperature 71. Light winds. At 2 am...mostly clear. Temperature 70. Light winds. At 4 am...mostly clear. Temperature 66. Light winds.

×

10-Day Weather Forecast

×

Almanac

Astronomy

Jul. 28, 2015 Rise Set
Actual Time
Civil Twilight
Nautical Twilight
Astronomical Twilight
Moon
Length of Visible Light
Length of Day
Tomorrow will be .
, % of the Moon is Illuminated

Today's Extremes

State Highs State Lows

Community

WunderPhotos

Upload Photos

1,842,013 photos uploaded!

WunderBlogs® & News

Nearby

Air Quality

  Air Quality AQ Index Pollutant
Not available.

Snow Depth

Station Depth Elevation

Earthquake Activity

City Distance Mag. Time & Date
Minimum magnitude displayed is 2.5.

Coastal Water Temperatures

Place Temperature

Stations

Nearby Weather Stations

Station Location Temp. Windchill Dew Point Humidity Wind Precip. Elev Updated Type